Salvamar Mimosa — EC2473 — position and weather

sailwx.info

Track history (hours):
 
Tides and Currents Weather Stations Pressure Air Temp Water Temp Dewpoint Dewpoint Depression Visibility Wind Speed Wind Dir Waves Ship Positions

Salvamar Mimosa

Last reported at 2017-Jul-20 08:36 UTC. Time now 2017-Jul-25 20:40 UTC.
Position N 37°33' W 000°50'.

Length 21 m; draft 1.2 m.

Type: SAR. MMSI: 224363280.

Date/timePositionNaut miles runAvg speedWind from/ knotsBaromVisibWave heightAir tempDewpointWater temp
2017-Jul-20 08:36N 37°33' W 000°50'1 6.8
2017-Jul-20 08:25N 37°33' W 000°48'1 3.1
2017-Jul-20 08:00N 37°33' W 000°47'2 4.6
2017-Jul-20 07:30N 37°32' W 000°44'5 9.2
2017-Jul-20 07:00N 37°37' W 000°42'  
2017-Jul-17 15:50N 37°24' W 001°33'1 2.3
2017-Jul-17 15:26N 37°24' W 001°35'0 0.0
2017-Jul-17 14:38N 37°24' W 001°35'0 0.0
2017-Jul-17 14:26N 37°24' W 001°35'0 0.0
2017-Jul-17 13:56N 37°24' W 001°35'0 0.0
2017-Jul-17 13:20N 37°24' W 001°35'0 0.0
2017-Jul-17 12:56N 37°24' W 001°35'0 0.0
2017-Jul-17 12:20N 37°24' W 001°35'0 0.0
2017-Jul-17 11:56N 37°24' W 001°35'0 0.0
2017-Jul-17 11:26N 37°24' W 001°35'0 0.0
2017-Jul-17 10:56N 37°24' W 001°35'0 0.0
2017-Jul-17 10:26N 37°24' W 001°35'1 0.6
2017-Jul-17 08:17N 37°24' W 001°33'1 4.5
2017-Jul-17 08:00N 37°24' W 001°35'0 0.0
2017-Jul-17 07:30N 37°24' W 001°35'0 0.0
2017-Jul-17 07:00N 37°24' W 001°35'  
2017-Jul-13 19:04N 37°34' W 000°51'321.2
2017-Jul-13 18:57N 37°34' W 000°48'817.7
2017-Jul-13 18:30N 37°35' W 000°38'5 8.0
2017-Jul-13 17:53N 37°33' W 000°44'11 0.4
2017-Jul-12 13:30N 37°33' W 000°58'4 5.7
2017-Jul-12 12:44N 37°33' W 000°53'1 5.8
2017-Jul-12 12:30N 37°34' W 000°51'3 5.9
2017-Jul-12 11:57N 37°35' W 000°47'1 0.7
2017-Jul-12 10:28N 37°35' W 000°46'  
Track history (hours):
 
Tides and Currents Weather Stations Pressure Air Temp Water Temp Dewpoint Dewpoint Depression Visibility Wind Speed Wind Dir Waves Ship Positions

Salvamar Mimosa

Last reported at 2017-Jul-20 08:36 UTC. Time now 2017-Jul-25 20:40 UTC.
Position N 37°33' W 000°50'.

Length 21 m; draft 1.2 m.

Type: SAR. MMSI: 224363280.

Date/timePositionNaut miles runAvg speedWind from/ knotsBaromVisibWave heightAir tempDewpointWater temp
2017-Jul-20 08:36N 37°33' W 000°50'1 6.8
2017-Jul-20 08:25N 37°33' W 000°48'1 3.1
2017-Jul-20 08:00N 37°33' W 000°47'2 4.6
2017-Jul-20 07:30N 37°32' W 000°44'5 9.2
2017-Jul-20 07:00N 37°37' W 000°42'  
2017-Jul-17 15:50N 37°24' W 001°33'1 2.3
2017-Jul-17 15:26N 37°24' W 001°35'0 0.0
2017-Jul-17 14:38N 37°24' W 001°35'0 0.0
2017-Jul-17 14:26N 37°24' W 001°35'0 0.0
2017-Jul-17 13:56N 37°24' W 001°35'0 0.0
2017-Jul-17 13:20N 37°24' W 001°35'0 0.0
2017-Jul-17 12:56N 37°24' W 001°35'0 0.0
2017-Jul-17 12:20N 37°24' W 001°35'0 0.0
2017-Jul-17 11:56N 37°24' W 001°35'0 0.0
2017-Jul-17 11:26N 37°24' W 001°35'0 0.0
2017-Jul-17 10:56N 37°24' W 001°35'0 0.0
2017-Jul-17 10:26N 37°24' W 001°35'1 0.6
2017-Jul-17 08:17N 37°24' W 001°33'1 4.5
2017-Jul-17 08:00N 37°24' W 001°35'0 0.0
2017-Jul-17 07:30N 37°24' W 001°35'0 0.0
2017-Jul-17 07:00N 37°24' W 001°35'  
2017-Jul-13 19:04N 37°34' W 000°51'321.2
2017-Jul-13 18:57N 37°34' W 000°48'817.7
2017-Jul-13 18:30N 37°35' W 000°38'5 8.0
2017-Jul-13 17:53N 37°33' W 000°44'11 0.4
2017-Jul-12 13:30N 37°33' W 000°58'4 5.7
2017-Jul-12 12:44N 37°33' W 000°53'1 5.8
2017-Jul-12 12:30N 37°34' W 000°51'3 5.9
2017-Jul-12 11:57N 37°35' W 000°47'1 0.7
2017-Jul-12 10:28N 37°35' W 000°46'  

Dump ship's entire track history